Time;durP1;ratioP1;P1;durP2;ratioP2;P2;SDS_P1;SDS_P2;PMS_P1;PMS_P2;Temp;Humidity;BMP_temperature;BMP_pressure;BME280_temperature;BME280_humidity;BME280_pressure;Samples;Min_cycle;Max_cycle;Signal;HPM_P1;HPM_P2
2021/12/20 00:01:59;;;;;;;7.80;6.90;;;5.00;99.90;;;;;;5086586;28;20193;-67
2021/12/20 00:04:25;;;;;;;15.70;8.47;;;5.00;99.90;;;;;;5086305;28;20236;-69
2021/12/20 00:06:51;;;;;;;11.30;7.60;;;4.90;99.90;;;;;;5086202;28;20169;-65
2021/12/20 00:09:16;;;;;;;10.50;6.30;;;4.80;99.90;;;;;;5086223;28;20160;-70
2021/12/20 00:11:43;;;;;;;9.00;6.30;;;4.80;99.90;;;;;;5085870;28;20157;-66
2021/12/20 00:14:08;;;;;;;7.93;6.43;;;4.80;99.90;;;;;;5086959;28;20208;-70
2021/12/20 00:16:34;;;;;;;11.47;7.00;;;4.80;99.90;;;;;;5051954;28;20325;-65
2021/12/20 00:19:00;;;;;;;16.00;9.43;;;4.90;99.90;;;;;;5066505;28;20204;-68
2021/12/20 00:21:26;;;;;;;9.57;6.13;;;5.00;99.90;;;;;;5067376;28;20632;-68
2021/12/20 00:23:51;;;;;;;14.87;7.60;;;4.90;99.90;;;;;;5066902;28;20409;-69
2021/12/20 00:26:17;;;;;;;9.27;6.53;;;4.90;99.90;;;;;;5066730;28;20227;-68
2021/12/20 00:28:43;;;;;;;12.70;7.87;;;4.80;99.90;;;;;;5069920;28;20174;-68
2021/12/20 00:31:08;;;;;;;12.13;6.33;;;4.80;99.90;;;;;;5070895;28;20201;-71
2021/12/20 00:33:35;;;;;;;12.27;8.30;;;4.70;99.90;;;;;;5070906;28;20204;-68
2021/12/20 00:36:06;;;;;;;11.63;5.97;;;4.70;99.90;;;;;;5070425;28;20433;-70
2021/12/20 00:41:17;;;;;;;9.80;5.93;;;4.70;99.90;;;;;;5067219;28;20382;-66
2021/12/20 00:43:43;;;;;;;10.40;7.03;;;4.70;99.90;;;;;;5066837;28;20185;-67
2021/12/20 00:46:09;;;;;;;9.73;6.40;;;4.60;99.90;;;;;;5066499;28;20158;-67
2021/12/20 00:48:35;;;;;;;20.03;9.47;;;4.60;99.90;;;;;;5066460;28;20455;-67
2021/12/20 00:51:01;;;;;;;9.23;7.17;;;4.60;99.90;;;;;;5068699;28;20227;-71
2021/12/20 00:53:26;;;;;;;13.93;6.90;;;4.50;99.90;;;;;;5069777;28;20656;-67
2021/12/20 00:55:52;;;;;;;11.63;6.37;;;4.50;99.90;;;;;;5069841;28;20189;-69
2021/12/20 00:58:17;;;;;;;10.93;7.50;;;4.50;99.90;;;;;;5069514;28;20215;-66
2021/12/20 01:00:47;;;;;;;13.70;7.77;;;4.60;99.90;;;;;;5069785;28;20275;-72
2021/12/20 01:03:15;;;;;;;17.13;8.48;;;4.60;99.90;;;;;;5069455;28;20429;-66
2021/12/20 01:05:41;;;;;;;12.63;7.15;;;4.60;99.90;;;;;;5069250;28;20157;-65
2021/12/20 01:08:08;;;;;;;13.65;5.63;;;4.50;99.90;;;;;;5069237;28;20174;-67
2021/12/20 01:10:36;;;;;;;9.93;6.70;;;4.50;99.90;;;;;;5069642;28;20176;-68
2021/12/20 01:13:04;;;;;;;12.52;6.47;;;4.50;99.90;;;;;;5069148;28;20166;-69
2021/12/20 01:15:33;;;;;;;21.48;10.57;;;4.50;99.90;;;;;;5076903;28;20165;-68
2021/12/20 01:17:59;;;;;;;11.18;7.32;;;4.50;99.90;;;;;;5088992;28;20193;-66
2021/12/20 01:20:25;;;;;;;11.97;7.40;;;4.50;99.90;;;;;;5089459;28;20181;-66
2021/12/20 01:22:52;;;;;;;13.23;8.63;;;4.50;99.90;;;;;;5089194;28;20511;-68
2021/12/20 01:25:19;;;;;;;8.73;6.05;;;4.40;99.90;;;;;;5089390;28;20255;-66
2021/12/20 01:27:45;;;;;;;7.75;5.45;;;4.40;99.90;;;;;;5089215;28;20172;-67
2021/12/20 01:30:12;;;;;;;16.05;7.35;;;4.50;99.90;;;;;;5093311;28;20432;-69
2021/12/20 01:32:39;;;;;;;10.40;7.63;;;4.40;99.90;;;;;;5090010;28;20157;-68
2021/12/20 01:35:06;;;;;;;13.50;8.07;;;4.50;99.90;;;;;;5088966;28;20188;-68
2021/12/20 01:37:31;;;;;;;11.80;7.15;;;4.40;99.90;;;;;;5088570;28;20208;-67
2021/12/20 01:39:59;;;;;;;8.77;5.90;;;4.50;99.90;;;;;;5071540;28;20200;-65
2021/12/20 01:42:26;;;;;;;10.32;5.82;;;4.40;99.90;;;;;;5088881;28;20157;-70
2021/12/20 01:44:56;;;;;;;11.63;8.50;;;4.40;99.90;;;;;;5088656;28;20297;-66
2021/12/20 01:47:23;;;;;;;19.30;9.57;;;4.40;99.90;;;;;;5088518;28;20168;-66
2021/12/20 01:49:59;;;;;;;11.38;8.85;;;4.40;99.90;;;;;;5088973;28;20165;-67
2021/12/20 01:52:28;;;;;;;16.70;9.32;;;4.40;99.90;;;;;;5088789;28;20176;-67
2021/12/20 01:54:54;;;;;;;12.20;6.03;;;4.30;99.90;;;;;;5088781;28;20196;-66
2021/12/20 01:57:22;;;;;;;7.65;6.18;;;4.30;99.90;;;;;;5088149;28;20204;-68
2021/12/20 01:59:48;;;;;;;12.63;6.78;;;4.30;99.90;;;;;;5088440;28;20166;-67
2021/12/20 02:02:14;;;;;;;13.52;7.28;;;4.30;99.90;;;;;;5087959;28;20232;-67
2021/12/20 02:04:46;;;;;;;14.27;8.47;;;4.30;99.90;;;;;;5088457;28;20188;-66
2021/12/20 02:09:57;;;;;;;15.02;7.65;;;4.40;99.90;;;;;;5088384;28;20167;-65
2021/12/20 02:12:22;;;;;;;10.33;6.70;;;4.30;99.90;;;;;;5088289;28;20304;-69
2021/12/20 02:14:48;;;;;;;13.10;7.50;;;4.30;99.90;;;;;;5086480;28;20352;-67
2021/12/20 02:17:14;;;;;;;12.07;6.73;;;4.30;99.90;;;;;;5067852;28;20200;-68
2021/12/20 02:19:39;;;;;;;16.30;8.77;;;4.30;99.90;;;;;;5068073;28;20488;-67
2021/12/20 02:22:05;;;;;;;10.47;6.30;;;4.40;99.90;;;;;;5068100;28;20191;-68
2021/12/20 02:24:31;;;;;;;12.70;7.40;;;4.40;99.90;;;;;;5067884;28;20182;-68
2021/12/20 02:26:57;;;;;;;11.73;6.43;;;4.40;99.90;;;;;;5067673;28;20424;-66
2021/12/20 02:29:38;;;;;;;13.70;6.30;;;4.40;99.90;;;;;;5067915;28;20170;-67
2021/12/20 02:37:33;;;;;;;10.27;7.30;;;4.30;99.90;;;;;;5067522;28;20284;-70
2021/12/20 02:39:59;;;;;;;16.47;8.97;;;4.30;99.90;;;;;;5067799;28;20161;-68
2021/12/20 02:42:30;;;;;;;9.07;6.80;;;4.20;99.90;;;;;;5067820;28;20173;-70
2021/12/20 02:45:10;;;;;;;12.63;8.82;;;4.20;99.90;;;;;;5067607;28;20183;-65
2021/12/20 02:47:41;;;;;;;14.65;7.28;;;4.10;99.90;;;;;;5067381;28;20239;-68
2021/12/20 02:50:07;;;;;;;14.63;6.88;;;4.30;99.90;;;;;;5067761;28;20174;-65
2021/12/20 02:52:33;;;;;;;12.75;6.65;;;4.20;99.90;;;;;;5067564;28;20184;-69
2021/12/20 02:54:59;;;;;;;11.07;6.93;;;4.10;99.90;;;;;;5067515;28;20401;-68
2021/12/20 02:57:24;;;;;;;16.53;7.30;;;4.10;99.90;;;;;;5067116;28;20345;-70
2021/12/20 02:59:50;;;;;;;14.57;7.10;;;4.10;99.90;;;;;;5067431;28;20182;-65
2021/12/20 03:02:18;;;;;;;18.03;7.13;;;4.10;99.90;;;;;;5067205;28;20190;-68
2021/12/20 03:04:43;;;;;;;8.38;5.75;;;4.00;99.90;;;;;;5067277;28;20182;-68
2021/12/20 03:07:15;;;;;;;13.43;7.00;;;4.10;99.90;;;;;;5067043;28;20184;-69
2021/12/20 03:09:48;;;;;;;10.75;7.35;;;4.10;99.90;;;;;;5067397;28;20162;-69
2021/12/20 03:12:14;;;;;;;6.47;5.68;;;4.10;99.90;;;;;;5066981;28;20212;-69
2021/12/20 03:14:44;;;;;;;18.53;6.17;;;4.10;99.90;;;;;;5066734;28;20181;-66
2021/12/20 03:17:10;;;;;;;9.90;6.47;;;4.10;99.90;;;;;;5086749;28;20450;-70
2021/12/20 03:19:37;;;;;;;9.43;5.80;;;4.00;99.90;;;;;;5087034;28;20161;-70
2021/12/20 03:22:04;;;;;;;7.15;5.70;;;4.10;99.90;;;;;;5087218;28;20225;-69
2021/12/20 03:24:30;;;;;;;15.57;6.68;;;4.00;99.90;;;;;;5069402;28;20279;-70
2021/12/20 03:26:56;;;;;;;11.23;7.30;;;4.00;99.90;;;;;;5086667;28;20193;-65
2021/12/20 03:29:21;;;;;;;11.10;6.32;;;4.00;99.90;;;;;;5086943;28;20167;-67
2021/12/20 03:31:47;;;;;;;14.13;6.50;;;3.90;99.90;;;;;;5087334;28;20169;-68
2021/12/20 03:34:14;;;;;;;10.70;6.10;;;3.90;99.90;;;;;;5086853;28;20292;-69
2021/12/20 03:36:39;;;;;;;10.90;6.15;;;4.00;99.90;;;;;;5086571;28;20251;-66
2021/12/20 03:39:07;;;;;;;20.87;8.97;;;4.00;99.90;;;;;;5086881;28;20168;-68
2021/12/20 03:41:33;;;;;;;11.55;8.43;;;4.00;99.90;;;;;;5087003;28;20206;-65
2021/12/20 03:43:59;;;;;;;8.27;7.18;;;4.00;99.90;;;;;;5086714;28;20181;-69
2021/12/20 03:46:27;;;;;;;13.93;6.35;;;4.00;99.90;;;;;;5086593;28;20264;-68
2021/12/20 03:48:52;;;;;;;10.85;6.20;;;4.00;99.90;;;;;;5086849;28;20171;-68
2021/12/20 03:51:18;;;;;;;16.53;7.50;;;4.00;99.90;;;;;;5086783;28;20381;-67
2021/12/20 03:53:44;;;;;;;10.57;5.60;;;4.00;99.90;;;;;;5086639;28;20180;-68
2021/12/20 03:56:09;;;;;;;13.97;5.97;;;4.00;99.90;;;;;;5052386;28;20172;-71
2021/12/20 03:58:36;;;;;;;9.17;6.87;;;4.10;99.90;;;;;;5086526;28;20188;-67
2021/12/20 04:01:05;;;;;;;23.83;7.70;;;4.10;99.90;;;;;;5086682;28;20230;-70
2021/12/20 04:03:34;;;;;;;11.55;8.23;;;4.10;99.90;;;;;;5086383;28;20207;-65
2021/12/20 04:06:00;;;;;;;14.38;6.88;;;4.10;99.90;;;;;;5086658;28;20236;-67
2021/12/20 04:08:25;;;;;;;14.95;6.47;;;4.00;99.90;;;;;;5068777;28;20176;-67
2021/12/20 04:10:51;;;;;;;9.47;5.70;;;4.00;99.90;;;;;;5087040;28;20168;-69
2021/12/20 04:13:17;;;;;;;7.63;5.83;;;4.00;99.90;;;;;;5086773;28;20207;-66
2021/12/20 04:15:43;;;;;;;14.80;6.30;;;4.10;99.90;;;;;;5077150;28;20510;-69
2021/12/20 04:18:08;;;;;;;13.53;8.03;;;4.10;99.90;;;;;;5066021;28;20197;-66
2021/12/20 04:20:34;;;;;;;14.60;8.30;;;4.10;99.90;;;;;;5066476;28;20173;-68
2021/12/20 04:23:00;;;;;;;12.40;8.30;;;4.10;99.90;;;;;;5066328;28;20416;-66
2021/12/20 04:25:26;;;;;;;13.27;8.50;;;4.10;99.90;;;;;;5068103;28;20263;-70
2021/12/20 04:27:52;;;;;;;13.33;5.30;;;4.10;99.90;;;;;;5069955;28;20399;-68
2021/12/20 04:30:17;;;;;;;10.77;7.47;;;4.10;99.90;;;;;;5070236;28;20536;-66
2021/12/20 04:32:45;;;;;;;12.83;7.33;;;4.10;99.90;;;;;;5070171;28;20404;-68
2021/12/20 04:35:13;;;;;;;11.73;6.72;;;4.10;99.90;;;;;;5069979;28;20399;-68
2021/12/20 04:37:41;;;;;;;8.07;5.10;;;4.10;99.90;;;;;;5069696;28;20340;-68
2021/12/20 04:40:11;;;;;;;10.75;7.25;;;4.10;99.90;;;;;;5069993;28;20168;-66
2021/12/20 04:42:37;;;;;;;14.00;8.52;;;4.10;99.90;;;;;;5070126;28;20181;-68
2021/12/20 04:45:03;;;;;;;17.03;7.80;;;4.20;99.90;;;;;;5069878;28;20201;-65
2021/12/20 04:47:29;;;;;;;8.15;6.25;;;4.20;99.90;;;;;;5069640;28;20173;-68
2021/12/20 04:49:54;;;;;;;15.10;7.17;;;4.20;99.90;;;;;;5069766;28;20197;-67
2021/12/20 04:52:20;;;;;;;13.47;6.90;;;4.20;99.90;;;;;;5052288;28;20161;-68
2021/12/20 04:54:46;;;;;;;11.20;6.20;;;4.10;99.90;;;;;;5069380;28;20204;-66
2021/12/20 04:57:12;;;;;;;8.63;6.40;;;4.10;99.90;;;;;;5069373;28;20208;-67
2021/12/20 04:59:37;;;;;;;12.63;6.77;;;4.20;99.90;;;;;;5069594;28;20170;-65
2021/12/20 05:02:03;;;;;;;12.50;6.73;;;4.20;99.90;;;;;;5069605;28;20412;-67
2021/12/20 05:04:29;;;;;;;14.60;7.97;;;4.20;99.90;;;;;;5051676;28;20201;-67
2021/12/20 05:06:54;;;;;;;11.40;6.90;;;4.10;99.90;;;;;;5069222;28;20272;-66
2021/12/20 05:09:20;;;;;;;10.93;7.03;;;4.00;99.90;;;;;;5069392;28;20382;-68
2021/12/20 05:11:57;;;;;;;11.80;7.00;;;4.00;99.90;;;;;;5069300;28;20253;-65
2021/12/20 05:14:23;;;;;;;9.02;4.88;;;4.00;99.90;;;;;;5069301;28;20188;-68
2021/12/20 05:16:48;;;;;;;11.80;6.83;;;4.00;99.90;;;;;;5087324;28;20214;-67
2021/12/20 05:19:14;;;;;;;7.20;5.80;;;4.00;99.90;;;;;;5089283;28;20188;-68
2021/12/20 05:21:40;;;;;;;10.63;6.60;;;4.00;99.90;;;;;;5089108;28;20273;-65
2021/12/20 05:24:06;;;;;;;8.97;7.10;;;4.00;99.90;;;;;;5089101;28;20389;-68
2021/12/20 05:26:31;;;;;;;11.60;7.57;;;4.00;99.90;;;;;;5088916;28;20188;-67
2021/12/20 05:28:57;;;;;;;7.17;5.57;;;4.00;99.90;;;;;;5089010;28;20391;-69
2021/12/20 05:31:23;;;;;;;9.17;6.70;;;4.00;99.90;;;;;;5089093;28;20381;-68
2021/12/20 05:33:48;;;;;;;10.90;6.63;;;4.00;99.90;;;;;;5089360;28;20216;-69
2021/12/20 05:36:14;;;;;;;15.93;6.67;;;4.00;99.90;;;;;;5087846;28;20169;-67
2021/12/20 05:38:39;;;;;;;8.27;5.90;;;4.00;99.90;;;;;;5088556;28;20181;-67
2021/12/20 05:41:05;;;;;;;15.23;9.30;;;4.00;99.90;;;;;;5088820;28;20157;-68
2021/12/20 05:43:31;;;;;;;5.00;4.10;;;4.00;99.90;;;;;;5088758;28;20307;-69
2021/12/20 05:45:56;;;;;;;13.60;6.70;;;4.00;99.90;;;;;;5088619;28;20377;-67
2021/12/20 05:48:22;;;;;;;11.60;6.43;;;4.00;99.90;;;;;;5088462;28;20181;-66
2021/12/20 05:50:48;;;;;;;7.53;6.00;;;4.00;99.90;;;;;;5088687;28;20389;-69
2021/12/20 05:53:13;;;;;;;14.70;6.53;;;4.00;99.90;;;;;;5088568;28;20246;-67
2021/12/20 05:55:39;;;;;;;10.50;6.97;;;4.00;99.90;;;;;;5088586;28;20161;-66
2021/12/20 05:58:05;;;;;;;13.57;7.27;;;4.00;99.90;;;;;;5088193;28;20276;-67
2021/12/20 06:00:30;;;;;;;10.90;5.83;;;4.00;99.90;;;;;;5088389;28;20266;-69
2021/12/20 06:02:56;;;;;;;15.43;6.77;;;4.10;99.90;;;;;;5087492;28;20190;-67
2021/12/20 06:05:22;;;;;;;8.83;7.63;;;4.00;99.90;;;;;;5086593;28;20179;-67
2021/12/20 06:07:48;;;;;;;9.98;7.20;;;4.00;99.90;;;;;;5086265;28;20172;-67
2021/12/20 06:10:17;;;;;;;17.00;6.67;;;4.00;99.90;;;;;;5086884;28;20172;-66
2021/12/20 06:12:43;;;;;;;13.48;6.85;;;4.00;99.90;;;;;;5086472;28;20418;-67
2021/12/20 06:15:10;;;;;;;7.15;5.13;;;4.00;99.90;;;;;;5081471;28;20193;-65
2021/12/20 06:17:36;;;;;;;10.50;6.47;;;4.10;99.90;;;;;;5048588;28;20208;-67
2021/12/20 06:20:07;;;;;;;9.70;5.55;;;4.00;99.90;;;;;;5068060;28;20161;-66
2021/12/20 06:22:33;;;;;;;23.50;9.05;;;4.00;99.90;;;;;;5067997;28;20215;-67
2021/12/20 06:24:59;;;;;;;11.77;7.33;;;4.10;99.90;;;;;;5068019;28;20177;-67
2021/12/20 06:27:25;;;;;;;12.07;5.83;;;4.10;99.90;;;;;;5067524;28;20282;-68
2021/12/20 06:29:50;;;;;;;11.50;7.07;;;4.10;99.90;;;;;;5067850;28;20563;-65
2021/12/20 06:32:16;;;;;;;9.70;6.43;;;4.10;99.90;;;;;;5067755;28;20208;-70
2021/12/20 06:34:41;;;;;;;13.90;7.23;;;4.00;99.90;;;;;;5067702;28;20177;-66
2021/12/20 06:37:08;;;;;;;14.00;5.83;;;4.00;99.90;;;;;;5067521;28;20211;-68
2021/12/20 06:39:34;;;;;;;20.38;8.63;;;4.00;99.90;;;;;;5067887;28;20267;-66
2021/12/20 06:41:59;;;;;;;9.23;6.70;;;4.10;99.90;;;;;;5067639;28;20275;-68
2021/12/20 06:44:25;;;;;;;10.63;6.87;;;4.00;99.90;;;;;;5067610;28;20185;-66
2021/12/20 06:46:52;;;;;;;14.13;7.67;;;4.00;99.90;;;;;;5066953;28;20461;-66
2021/12/20 06:49:17;;;;;;;11.63;6.72;;;4.00;99.90;;;;;;5067044;28;20240;-68
2021/12/20 06:51:43;;;;;;;9.20;5.40;;;4.00;99.90;;;;;;5067684;28;20286;-66
2021/12/20 06:54:11;;;;;;;10.77;5.70;;;4.00;99.90;;;;;;5067445;28;20267;-69
2021/12/20 06:56:37;;;;;;;8.25;5.32;;;4.00;99.90;;;;;;5067071;28;20447;-65
2021/12/20 06:59:03;;;;;;;10.90;6.28;;;4.00;99.90;;;;;;5067375;28;20373;-69
2021/12/20 07:01:29;;;;;;;12.10;7.10;;;4.00;99.90;;;;;;5067328;28;20170;-66
2021/12/20 07:03:55;;;;;;;13.20;7.60;;;4.00;99.90;;;;;;5066927;28;20201;-69
2021/12/20 07:06:21;;;;;;;11.70;6.32;;;4.00;99.90;;;;;;5049252;28;20406;-68
2021/12/20 07:08:47;;;;;;;10.53;7.43;;;4.10;99.90;;;;;;5067190;28;20223;-68
2021/12/20 07:11:12;;;;;;;10.50;7.80;;;4.10;99.90;;;;;;5066959;28;20403;-68
2021/12/20 07:13:39;;;;;;;10.97;6.30;;;4.10;99.90;;;;;;5066962;28;20217;-67
2021/12/20 07:16:05;;;;;;;12.07;6.10;;;4.10;99.90;;;;;;5079369;28;20396;-67
2021/12/20 07:18:31;;;;;;;9.63;7.55;;;4.10;99.90;;;;;;5086620;28;20278;-68
2021/12/20 07:20:57;;;;;;;11.40;6.60;;;4.10;99.90;;;;;;5087032;28;20242;-66
2021/12/20 07:23:23;;;;;;;8.83;7.93;;;4.20;99.90;;;;;;5086748;28;20227;-64
2021/12/20 07:25:49;;;;;;;12.05;6.90;;;4.20;99.90;;;;;;5069486;28;20173;-69
2021/12/20 07:28:15;;;;;;;11.05;6.97;;;4.20;99.90;;;;;;5086577;28;20181;-67
2021/12/20 07:30:44;;;;;;;8.43;5.57;;;4.30;99.90;;;;;;5087030;28;20389;-69
2021/12/20 07:33:09;;;;;;;11.88;6.05;;;4.30;99.90;;;;;;5086813;28;20206;-66
2021/12/20 07:35:35;;;;;;;10.83;6.77;;;4.30;99.90;;;;;;5087111;28;20198;-67
2021/12/20 07:38:03;;;;;;;11.50;5.87;;;4.30;99.90;;;;;;5086495;28;20211;-66
2021/12/20 07:40:29;;;;;;;10.30;7.55;;;4.30;99.90;;;;;;5086891;28;20165;-68
2021/12/20 07:42:55;;;;;;;15.90;6.43;;;4.30;99.90;;;;;;5086732;28;20248;-67
2021/12/20 07:45:21;;;;;;;12.10;7.28;;;4.30;99.90;;;;;;5086548;28;20255;-67
2021/12/20 07:47:48;;;;;;;8.63;6.73;;;4.30;99.90;;;;;;5085581;28;20172;-63
2021/12/20 07:50:15;;;;;;;10.80;7.35;;;4.40;99.90;;;;;;5107169;27;20417;-61
2021/12/20 07:52:41;;;;;;;13.65;8.15;;;4.40;99.90;;;;;;5095675;27;20161;-68
2021/12/20 07:55:08;;;;;;;7.50;6.20;;;4.40;99.90;;;;;;5086646;28;20196;-64
2021/12/20 07:57:33;;;;;;;11.35;5.85;;;4.50;99.90;;;;;;5086249;28;20322;-65
2021/12/20 07:59:59;;;;;;;8.17;5.67;;;4.50;99.90;;;;;;5087739;28;20178;-66
2021/12/20 08:02:24;;;;;;;12.77;9.03;;;4.50;99.90;;;;;;5086938;28;20420;-70
2021/12/20 08:04:50;;;;;;;11.40;7.13;;;4.50;99.90;;;;;;5098625;27;20200;-66
2021/12/20 08:07:21;;;;;;;9.50;5.77;;;4.40;99.90;;;;;;5110537;27;20246;-67
2021/12/20 08:09:49;;;;;;;13.77;6.95;;;4.40;99.90;;;;;;5100452;27;20627;-65
2021/12/20 08:12:15;;;;;;;13.48;7.40;;;4.40;99.90;;;;;;5072242;28;20192;-69
2021/12/20 08:14:40;;;;;;;9.10;6.55;;;4.50;99.90;;;;;;5089415;28;20184;-66
2021/12/20 08:17:06;;;;;;;12.53;5.70;;;4.50;99.90;;;;;;5070205;28;20243;-67
2021/12/20 08:19:31;;;;;;;8.67;5.80;;;4.50;99.90;;;;;;5070269;28;20161;-67
2021/12/20 08:21:57;;;;;;;9.63;5.47;;;4.50;99.90;;;;;;5070201;28;20419;-68
2021/12/20 08:24:23;;;;;;;11.13;7.80;;;4.60;99.90;;;;;;5069917;28;20181;-67
2021/12/20 08:26:49;;;;;;;7.33;6.63;;;4.60;99.90;;;;;;5103742;27;20463;-66
2021/12/20 08:29:14;;;;;;;17.40;7.87;;;4.60;99.90;;;;;;5110356;27;20235;-68
2021/12/20 08:31:40;;;;;;;16.40;8.70;;;4.60;99.90;;;;;;5104513;27;20201;-66
2021/12/20 08:34:06;;;;;;;14.10;6.93;;;4.60;99.90;;;;;;5090094;28;20188;-69
2021/12/20 08:36:32;;;;;;;10.70;5.80;;;4.70;99.90;;;;;;5089631;28;20416;-64
2021/12/20 08:38:57;;;;;;;16.05;7.25;;;4.80;99.90;;;;;;5102719;27;20255;-66
2021/12/20 08:41:23;;;;;;;14.40;6.77;;;4.80;99.90;;;;;;5104466;27;20272;-69
2021/12/20 08:43:49;;;;;;;7.72;4.95;;;4.90;99.90;;;;;;5109903;27;20207;-68
2021/12/20 08:46:16;;;;;;;9.93;6.23;;;4.90;99.90;;;;;;5099221;27;20398;-66
2021/12/20 08:48:43;;;;;;;16.30;8.43;;;5.00;99.90;;;;;;5089955;28;20202;-68
2021/12/20 08:51:09;;;;;;;15.60;7.28;;;5.10;99.90;;;;;;5089665;28;20227;-67
2021/12/20 08:53:36;;;;;;;11.98;6.18;;;5.20;99.90;;;;;;5089648;28;20194;-66
2021/12/20 08:56:02;;;;;;;7.85;6.32;;;5.20;99.90;;;;;;5071138;28;20177;-69
2021/12/20 08:58:28;;;;;;;7.35;5.70;;;5.30;99.90;;;;;;5069124;28;20203;-66
2021/12/20 09:00:55;;;;;;;11.03;6.33;;;5.30;99.90;;;;;;5069495;28;20175;-69
2021/12/20 09:03:21;;;;;;;9.07;4.95;;;5.30;99.90;;;;;;5069152;28;20204;-65
2021/12/20 09:05:48;;;;;;;10.82;7.00;;;5.30;99.90;;;;;;5069246;28;20169;-68
2021/12/20 09:08:17;;;;;;;11.98;6.65;;;5.30;99.90;;;;;;5069083;28;20209;-64
2021/12/20 09:10:42;;;;;;;7.45;5.20;;;5.40;99.90;;;;;;5069268;28;20179;-68
2021/12/20 09:13:09;;;;;;;10.40;7.07;;;5.40;99.90;;;;;;5069138;28;20236;-66
2021/12/20 09:15:36;;;;;;;12.70;5.35;;;5.40;99.90;;;;;;5072587;28;20430;-65
2021/12/20 09:18:03;;;;;;;10.25;6.50;;;5.40;99.90;;;;;;5068799;28;20207;-65
2021/12/20 09:20:30;;;;;;;13.13;5.85;;;5.40;99.90;;;;;;5069117;28;20181;-67
2021/12/20 09:23:03;;;;;;;10.70;6.53;;;5.50;99.90;;;;;;5069038;28;20345;-65
2021/12/20 09:25:30;;;;;;;4.88;4.07;;;5.50;99.90;;;;;;5068943;28;20171;-69
2021/12/20 09:27:57;;;;;;;8.98;5.75;;;5.60;99.90;;;;;;5068696;28;20169;-65
2021/12/20 09:30:28;;;;;;;9.77;6.25;;;5.60;99.90;;;;;;5068845;28;20156;-69
2021/12/20 09:32:54;;;;;;;7.50;5.80;;;5.60;99.90;;;;;;5068931;28;20184;-66
2021/12/20 09:35:21;;;;;;;8.98;6.15;;;5.60;99.90;;;;;;5068790;28;20154;-66
2021/12/20 09:37:50;;;;;;;15.65;7.80;;;5.60;99.90;;;;;;5068312;28;20199;-67
2021/12/20 09:40:17;;;;;;;14.98;6.75;;;5.50;99.90;;;;;;5071053;27;20168;-66
2021/12/20 09:42:54;;;;;;;16.33;6.78;;;5.60;99.90;;;;;;5108893;27;20311;-63
2021/12/20 09:45:21;;;;;;;9.00;5.95;;;5.70;99.90;;;;;;5051164;28;20251;-66
2021/12/20 09:47:48;;;;;;;11.38;7.13;;;5.80;99.90;;;;;;5068075;28;20270;-64
2021/12/20 09:50:15;;;;;;;9.35;5.72;;;5.80;99.90;;;;;;5085424;28;20181;-68
2021/12/20 09:52:43;;;;;;;17.95;8.18;;;5.90;99.90;;;;;;5088446;28;20215;-65
2021/12/20 09:55:11;;;;;;;11.77;6.93;;;6.00;99.90;;;;;;5077476;28;20193;-66
2021/12/20 09:57:37;;;;;;;11.85;6.85;;;6.10;99.90;;;;;;5068382;28;20211;-68
2021/12/20 10:00:06;;;;;;;12.93;6.07;;;6.20;99.90;;;;;;5069437;28;20227;-67
2021/12/20 10:02:31;;;;;;;13.70;7.63;;;6.30;99.90;;;;;;5093422;27;20239;-66
2021/12/20 10:04:57;;;;;;;14.03;7.70;;;6.30;99.90;;;;;;5108265;27;20186;-66
2021/12/20 10:07:25;;;;;;;10.37;5.90;;;6.30;99.90;;;;;;5108205;27;20167;-68
2021/12/20 10:09:51;;;;;;;12.95;7.05;;;6.40;99.90;;;;;;5093855;27;20166;-65
2021/12/20 10:12:23;;;;;;;14.15;8.20;;;6.40;99.90;;;;;;5068016;28;20162;-68
2021/12/20 10:15:03;;;;;;;8.63;6.88;;;6.60;99.90;;;;;;5069778;28;20242;-66
2021/12/20 10:17:48;;;;;;;14.88;7.35;;;6.80;99.90;;;;;;5058749;28;20216;-68
2021/12/20 10:20:17;;;;;;;10.35;6.05;;;7.20;99.90;;;;;;5067989;28;20183;-66
2021/12/20 10:22:43;;;;;;;9.48;7.63;;;7.80;99.90;;;;;;5067452;28;20369;-67
2021/12/20 10:25:30;;;;;;;8.63;5.50;;;8.50;99.90;;;;;;5067759;28;20182;-68
2021/12/20 10:28:07;;;;;;;6.40;4.23;;;9.30;99.90;;;;;;5067440;28;20199;-64
2021/12/20 10:30:37;;;;;;;5.23;4.23;;;10.20;99.90;;;;;;5067928;28;20419;-69
2021/12/20 10:33:04;;;;;;;4.40;3.33;;;10.70;99.90;;;;;;5067832;28;20580;-66
2021/12/20 10:35:32;;;;;;;4.00;3.23;;;11.10;99.90;;;;;;5067625;28;20416;-68
2021/12/20 10:38:02;;;;;;;5.43;3.67;;;11.50;99.90;;;;;;5067152;28;20434;-65
2021/12/20 10:40:28;;;;;;;6.93;3.80;;;11.90;99.90;;;;;;5073068;27;20441;-69
2021/12/20 10:42:56;;;;;;;4.20;3.20;;;12.30;99.90;;;;;;5108104;27;20411;-65
2021/12/20 10:45:22;;;;;;;4.50;4.07;;;12.60;99.90;;;;;;5103093;27;20431;-68
2021/12/20 10:47:53;;;;;;;9.50;3.70;;;12.90;99.70;;;;;;5087215;28;20388;-65
2021/12/20 10:50:30;;;;;;;5.33;4.37;;;13.10;98.10;;;;;;5087624;28;20407;-70
2021/12/20 10:53:19;;;;;;;5.43;3.80;;;13.00;97.70;;;;;;5086651;28;20492;-64
2021/12/20 10:55:55;;;;;;;6.40;5.77;;;12.80;97.20;;;;;;5087294;28;20467;-66
2021/12/20 10:58:29;;;;;;;9.80;6.30;;;12.50;98.10;;;;;;5087002;28;20438;-67
2021/12/20 11:01:04;;;;;;;7.67;6.33;;;12.10;98.80;;;;;;5087213;28;20437;-65
2021/12/20 11:03:36;;;;;;;8.43;6.63;;;11.70;99.30;;;;;;5086827;28;20701;-68
2021/12/20 11:11:30;;;;;;;9.60;6.20;;;9.90;99.90;;;;;;5087140;28;20494;-64
2021/12/20 11:13:59;;;;;;;8.30;5.77;;;9.20;99.90;;;;;;5052940;28;20440;-67
2021/12/20 11:16:27;;;;;;;11.07;8.10;;;8.50;99.90;;;;;;5086631;28;20423;-64
2021/12/20 11:19:38;;;;;;;15.52;10.10;;;8.00;99.90;;;;;;5087207;28;20169;-68
2021/12/20 11:22:12;;;;;;;5.65;5.13;;;7.60;99.90;;;;;;4986752;28;20365;-67
2021/12/20 11:24:40;;;;;;;10.20;6.20;;;7.40;99.90;;;;;;4986561;28;20247;-62
2021/12/20 11:27:08;;;;;;;7.20;4.95;;;7.20;99.90;;;;;;5044374;28;20177;-63
2021/12/20 11:29:36;;;;;;;6.38;4.65;;;7.00;99.90;;;;;;5050502;28;20389;-66
2021/12/20 11:32:02;;;;;;;10.60;5.53;;;6.70;99.90;;;;;;5066656;28;20209;-63
2021/12/20 11:34:28;;;;;;;10.10;7.55;;;6.60;99.90;;;;;;5071356;28;20208;-65
2021/12/20 11:36:55;;;;;;;6.50;5.33;;;6.60;99.90;;;;;;5048809;28;20227;-68
2021/12/20 11:39:21;;;;;;;10.23;6.35;;;6.50;99.90;;;;;;5066960;28;20487;-64
2021/12/20 11:41:47;;;;;;;10.20;5.07;;;6.40;99.90;;;;;;5094365;27;20179;-65
2021/12/20 11:44:16;;;;;;;9.63;5.90;;;6.30;99.90;;;;;;5106931;27;20184;-68
2021/12/20 11:47:02;;;;;;;6.75;4.07;;;6.30;99.90;;;;;;5092054;27;20242;-67
2021/12/20 11:49:28;;;;;;;9.73;4.70;;;6.10;99.90;;;;;;5087339;28;20194;-67
2021/12/20 11:52:14;;;;;;;11.50;6.30;;;6.10;99.90;;;;;;5097953;27;20199;-67
2021/12/20 11:54:47;;;;;;;7.90;6.13;;;6.00;99.90;;;;;;5078323;28;20196;-65
2021/12/20 11:57:27;;;;;;;7.97;6.43;;;5.90;99.90;;;;;;5092205;27;20199;-62
2021/12/20 11:59:59;;;;;;;10.07;5.68;;;5.90;99.90;;;;;;5104913;27;20163;-62
2021/12/20 12:02:30;;;;;;;7.90;5.53;;;5.80;99.90;;;;;;5086393;28;20180;-66
2021/12/20 12:05:09;;;;;;;6.20;3.65;;;5.80;99.90;;;;;;5086354;28;20191;-64
2021/12/20 12:07:36;;;;;;;11.07;4.95;;;5.80;99.90;;;;;;5086127;28;20226;-65
2021/12/20 12:10:07;;;;;;;9.38;4.88;;;5.80;99.90;;;;;;5085563;28;20178;-66
2021/12/20 12:12:39;;;;;;;7.85;5.47;;;5.70;99.90;;;;;;5091833;27;20242;-66
2021/12/20 12:15:09;;;;;;;6.78;5.15;;;5.70;99.90;;;;;;5102104;27;20187;-66
2021/12/20 12:17:59;;;;;;;5.40;4.15;;;5.70;99.90;;;;;;5086246;28;20210;-63
2021/12/20 12:20:50;;;;;;;11.30;7.28;;;5.70;99.90;;;;;;5086348;28;20169;-67
2021/12/20 12:23:22;;;;;;;8.95;5.72;;;5.70;99.90;;;;;;5086418;28;20202;-67
2021/12/20 12:25:57;;;;;;;9.40;4.82;;;5.60;99.90;;;;;;5086081;28;20175;-65
2021/12/20 12:28:26;;;;;;;9.70;5.18;;;5.60;99.90;;;;;;5085933;28;20178;-64
2021/12/20 12:31:01;;;;;;;5.15;4.22;;;5.50;99.90;;;;;;5086162;28;20398;-66
2021/12/20 12:33:36;;;;;;;6.53;4.55;;;5.50;99.90;;;;;;5086217;28;20207;-64
2021/12/20 12:36:08;;;;;;;5.90;5.35;;;5.60;99.90;;;;;;5068852;28;20382;-64
2021/12/20 12:38:54;;;;;;;8.77;3.75;;;5.70;99.90;;;;;;5085993;28;20289;-66
2021/12/20 12:41:26;;;;;;;7.13;3.63;;;5.70;99.90;;;;;;5086213;28;20190;-64
2021/12/20 12:44:00;;;;;;;10.23;3.85;;;5.80;99.90;;;;;;5086224;28;20221;-65
2021/12/20 12:46:43;;;;;;;7.75;3.97;;;5.90;99.90;;;;;;5087828;28;20199;-63
2021/12/20 12:49:21;;;;;;;6.53;4.53;;;6.00;99.90;;;;;;5089983;28;20166;-64
2021/12/20 12:51:50;;;;;;;7.00;3.92;;;6.10;99.90;;;;;;5089904;28;20186;-65
2021/12/20 12:54:40;;;;;;;6.45;3.72;;;6.20;99.90;;;;;;5090078;28;20416;-68
2021/12/20 12:57:11;;;;;;;5.85;3.45;;;6.20;99.90;;;;;;5091727;28;20369;-65
2021/12/20 12:59:58;;;;;;;7.03;3.08;;;6.30;99.90;;;;;;5093176;28;20210;-64
2021/12/20 13:02:29;;;;;;;4.72;3.80;;;6.30;99.90;;;;;;5093360;28;20179;-67
2021/12/20 13:04:58;;;;;;;5.50;3.38;;;6.40;99.90;;;;;;5092817;28;20187;-64
2021/12/20 13:07:41;;;;;;;4.68;3.00;;;6.50;99.90;;;;;;5091770;28;20218;-67
2021/12/20 13:10:12;;;;;;;4.38;2.80;;;6.60;99.90;;;;;;5091561;28;20206;-64
2021/12/20 13:17:40;;;;;;;5.05;3.78;;;6.70;99.90;;;;;;5089130;28;20209;-65